Time;durP1;ratioP1;P1;durP2;ratioP2;P2;SDS_P1;SDS_P2;PMS_P1;PMS_P2;Temp;Humidity;BMP_temperature;BMP_pressure;BME280_temperature;BME280_humidity;BME280_pressure;Samples;Min_cycle;Max_cycle;Signal;HPM_P1;HPM_P2
2021/07/26 00:00:06;;;;;;;9.03;6.47;;;18.20;99.90;;;;;;5062666;28;20446;-64
2021/07/26 00:02:35;;;;;;;7.33;6.17;;;18.20;99.90;;;;;;5092743;28;20222;-64
2021/07/26 00:05:05;;;;;;;7.10;6.10;;;18.20;99.90;;;;;;5074306;28;20181;-64
2021/07/26 00:07:33;;;;;;;6.73;5.93;;;18.10;99.90;;;;;;5063167;28;20246;-64
2021/07/26 00:10:04;;;;;;;9.17;6.43;;;18.10;99.90;;;;;;5062309;28;20172;-64
2021/07/26 00:12:33;;;;;;;7.27;6.30;;;18.10;99.90;;;;;;5094247;28;20188;-64
2021/07/26 00:15:05;;;;;;;9.53;6.80;;;18.10;99.90;;;;;;5059444;28;20482;-64
2021/07/26 00:17:33;;;;;;;10.50;7.20;;;18.10;99.90;;;;;;5065184;28;20221;-64
2021/07/26 00:20:01;;;;;;;10.90;7.33;;;18.10;99.90;;;;;;5059303;28;20250;-64
2021/07/26 00:22:30;;;;;;;10.73;7.80;;;18.10;99.90;;;;;;5088369;28;20177;-64
2021/07/26 00:24:58;;;;;;;8.97;7.77;;;18.20;99.90;;;;;;5061056;28;20239;-64
2021/07/26 00:27:26;;;;;;;8.13;7.27;;;18.20;99.90;;;;;;5059225;28;20181;-64
2021/07/26 00:29:54;;;;;;;13.17;7.60;;;18.20;99.90;;;;;;5061924;28;20181;-64
2021/07/26 00:32:24;;;;;;;11.47;9.20;;;18.10;99.90;;;;;;5064027;28;20240;-64
2021/07/26 00:34:53;;;;;;;11.57;9.13;;;18.20;99.90;;;;;;5062962;28;20208;-64
2021/07/26 00:37:25;;;;;;;10.60;8.73;;;18.20;99.90;;;;;;5091927;28;20208;-64
2021/07/26 00:39:54;;;;;;;15.73;10.10;;;18.20;99.90;;;;;;5060886;28;20205;-64
2021/07/26 00:42:22;;;;;;;16.20;9.60;;;18.20;99.90;;;;;;5058200;28;20316;-64
2021/07/26 00:44:51;;;;;;;12.90;8.90;;;18.30;99.90;;;;;;5060118;28;20187;-64
2021/07/26 00:47:20;;;;;;;14.03;8.73;;;18.30;99.90;;;;;;5056683;28;20330;-64
2021/07/26 00:49:49;;;;;;;16.63;8.67;;;18.30;99.90;;;;;;5060634;28;20180;-64
2021/07/26 00:52:17;;;;;;;10.97;8.47;;;18.30;99.90;;;;;;5061645;28;20181;-64
2021/07/26 00:54:47;;;;;;;10.03;8.13;;;18.30;99.90;;;;;;5060392;28;20228;-64
2021/07/26 00:57:16;;;;;;;11.10;7.83;;;18.30;99.90;;;;;;5061947;28;20185;-64
2021/07/26 00:59:45;;;;;;;11.73;7.63;;;18.30;99.90;;;;;;5060822;28;20178;-64
2021/07/26 01:02:13;;;;;;;7.30;6.60;;;18.30;99.90;;;;;;5058819;28;20191;-64
2021/07/26 01:04:41;;;;;;;9.43;7.23;;;18.30;99.90;;;;;;5056596;28;20172;-64
2021/07/26 01:07:11;;;;;;;8.03;6.43;;;18.30;99.90;;;;;;5060815;28;20176;-64
2021/07/26 01:09:39;;;;;;;10.93;7.00;;;18.30;99.90;;;;;;5061055;28;20177;-64
2021/07/26 01:12:08;;;;;;;9.23;6.53;;;18.30;99.90;;;;;;5061039;28;20176;-64
2021/07/26 01:14:38;;;;;;;6.60;5.87;;;18.30;99.90;;;;;;5058852;28;20188;-64
2021/07/26 01:17:08;;;;;;;8.40;6.20;;;18.30;99.90;;;;;;5056401;28;20181;-64
2021/07/26 01:19:36;;;;;;;13.23;6.23;;;18.30;99.90;;;;;;5059761;28;20366;-64
2021/07/26 01:22:06;;;;;;;12.53;6.70;;;18.30;99.90;;;;;;5061162;28;20207;-64
2021/07/26 01:24:35;;;;;;;9.30;5.63;;;18.20;99.90;;;;;;5074879;28;20184;-64
2021/07/26 01:27:03;;;;;;;7.37;6.00;;;18.20;99.90;;;;;;5060646;28;20424;-64
2021/07/26 01:29:33;;;;;;;11.07;6.60;;;18.10;99.90;;;;;;5056517;28;20181;-64
2021/07/26 01:32:01;;;;;;;7.10;6.00;;;18.10;99.90;;;;;;5062787;28;20423;-64
2021/07/26 01:34:30;;;;;;;7.63;6.20;;;18.00;99.90;;;;;;5075132;28;20179;-64
2021/07/26 01:36:58;;;;;;;12.00;6.37;;;18.00;99.90;;;;;;5059412;28;20173;-64
2021/07/26 01:39:27;;;;;;;11.70;7.07;;;17.90;99.90;;;;;;5060212;28;20176;-64
2021/07/26 01:41:56;;;;;;;10.67;7.23;;;17.90;99.90;;;;;;5059335;28;20208;-64
2021/07/26 01:44:24;;;;;;;11.23;7.60;;;17.90;99.90;;;;;;5061434;28;20189;-64
2021/07/26 01:47:06;;;;;;;17.43;7.07;;;17.90;99.90;;;;;;5064797;28;20234;-64
2021/07/26 01:49:55;;;;;;;16.37;7.47;;;17.80;99.90;;;;;;5079026;28;20206;-64
2021/07/26 01:52:25;;;;;;;10.73;7.30;;;17.90;99.90;;;;;;5075472;28;20208;-64
2021/07/26 01:54:55;;;;;;;15.87;8.00;;;17.80;99.90;;;;;;5076658;28;20235;-64
2021/07/26 01:57:24;;;;;;;11.43;7.20;;;17.80;99.90;;;;;;5081128;28;20457;-64
2021/07/26 01:59:53;;;;;;;15.00;7.07;;;17.80;99.90;;;;;;5075882;28;20181;-64
2021/07/26 02:02:23;;;;;;;9.77;7.00;;;17.70;99.90;;;;;;5112100;28;20491;-64
2021/07/26 02:04:52;;;;;;;15.93;8.43;;;17.70;99.90;;;;;;5080048;28;20328;-64
2021/07/26 02:07:20;;;;;;;15.70;7.53;;;17.70;99.90;;;;;;5079370;28;20333;-64
2021/07/26 02:09:48;;;;;;;14.40;7.93;;;17.60;99.90;;;;;;5080336;28;20180;-64
2021/07/26 02:12:18;;;;;;;13.30;7.33;;;17.60;99.90;;;;;;5079408;28;20177;-64
2021/07/26 02:14:55;;;;;;;17.53;8.07;;;17.60;99.90;;;;;;5080203;28;20190;-64
2021/07/26 02:17:23;;;;;;;14.90;7.63;;;17.60;99.90;;;;;;5080458;28;20196;-64
2021/07/26 02:19:52;;;;;;;12.57;8.57;;;17.60;99.90;;;;;;5081383;28;20187;-64
2021/07/26 02:22:20;;;;;;;11.90;8.20;;;17.60;99.90;;;;;;5081636;28;20508;-64
2021/07/26 02:24:49;;;;;;;18.50;7.90;;;17.60;99.90;;;;;;5079405;28;20178;-64
2021/07/26 02:27:18;;;;;;;18.63;8.33;;;17.70;99.90;;;;;;5112468;28;20180;-64
2021/07/26 02:29:47;;;;;;;12.00;7.57;;;17.70;99.90;;;;;;5080321;28;20192;-64
2021/07/26 02:32:15;;;;;;;19.10;8.20;;;17.80;99.90;;;;;;5080366;28;20187;-64
2021/07/26 02:34:43;;;;;;;14.27;8.20;;;17.80;99.90;;;;;;5080147;28;20190;-64
2021/07/26 02:37:12;;;;;;;11.70;7.63;;;17.80;99.90;;;;;;5079232;28;20187;-64
2021/07/26 02:39:40;;;;;;;17.40;7.77;;;17.70;99.90;;;;;;5078368;28;20176;-64
2021/07/26 02:42:08;;;;;;;17.07;7.80;;;17.60;99.90;;;;;;5076164;28;20195;-64
2021/07/26 02:44:38;;;;;;;18.40;8.23;;;17.70;99.90;;;;;;5080893;28;20188;-64
2021/07/26 02:47:06;;;;;;;13.73;7.63;;;17.70;99.90;;;;;;5077215;28;20205;-64
2021/07/26 02:49:35;;;;;;;16.40;7.63;;;17.70;99.90;;;;;;5080443;28;20472;-64
2021/07/26 02:52:03;;;;;;;12.30;7.80;;;17.70;99.90;;;;;;5077778;28;20394;-64
2021/07/26 02:54:32;;;;;;;13.13;7.47;;;17.60;99.90;;;;;;5093514;28;20260;-64
2021/07/26 02:57:01;;;;;;;14.93;7.53;;;17.50;99.90;;;;;;5078505;28;20176;-64
2021/07/26 02:59:31;;;;;;;15.57;7.97;;;17.50;99.90;;;;;;5073935;28;20174;-64
2021/07/26 03:02:04;;;;;;;14.07;7.50;;;17.40;99.90;;;;;;5075135;28;20226;-64
2021/07/26 03:04:36;;;;;;;12.83;7.67;;;17.40;99.90;;;;;;5095565;28;20185;-64
2021/07/26 03:07:07;;;;;;;11.53;6.97;;;17.40;99.90;;;;;;5084905;28;20220;-64
2021/07/26 03:09:43;;;;;;;12.30;7.13;;;17.40;99.90;;;;;;5096993;28;20416;-64
2021/07/26 03:12:33;;;;;;;16.90;7.53;;;17.40;99.90;;;;;;5096348;28;20176;-64
2021/07/26 03:15:42;;;;;;;11.60;7.43;;;17.30;99.90;;;;;;5078482;28;20184;-64
2021/07/26 03:18:13;;;;;;;12.33;7.50;;;17.20;99.90;;;;;;5097191;28;20208;-64
2021/07/26 03:20:41;;;;;;;17.43;7.60;;;17.20;99.90;;;;;;5082270;28;20311;-64
2021/07/26 03:23:10;;;;;;;11.93;7.30;;;17.20;99.90;;;;;;5082202;28;20205;-64
2021/07/26 03:25:40;;;;;;;11.13;7.30;;;17.20;99.90;;;;;;5105762;28;20229;-64
2021/07/26 03:28:09;;;;;;;13.90;7.37;;;17.10;99.90;;;;;;5079867;28;20332;-64
2021/07/26 03:30:38;;;;;;;11.83;7.80;;;17.10;99.90;;;;;;5114935;28;20464;-64
2021/07/26 03:33:09;;;;;;;13.93;7.53;;;17.00;99.90;;;;;;5080152;28;20173;-64
2021/07/26 03:35:41;;;;;;;13.83;7.83;;;17.00;99.90;;;;;;5081406;28;20196;-63
2021/07/26 03:38:09;;;;;;;11.53;7.37;;;17.00;99.90;;;;;;5080698;28;20353;-64
2021/07/26 03:40:37;;;;;;;14.70;8.23;;;17.00;99.90;;;;;;5077621;28;20195;-64
2021/07/26 03:43:08;;;;;;;15.07;8.10;;;17.00;99.90;;;;;;5080756;28;20220;-64
2021/07/26 03:45:36;;;;;;;14.53;7.37;;;17.00;99.90;;;;;;5081988;28;20176;-64
2021/07/26 03:48:05;;;;;;;16.33;7.37;;;17.10;99.90;;;;;;5114422;28;20199;-64
2021/07/26 03:50:33;;;;;;;15.47;8.80;;;17.20;99.90;;;;;;5082241;28;20179;-64
2021/07/26 03:53:04;;;;;;;14.50;8.90;;;17.20;99.90;;;;;;5081290;28;20174;-64
2021/07/26 03:55:34;;;;;;;15.40;8.63;;;17.20;99.90;;;;;;5078384;28;20245;-64
2021/07/26 03:58:03;;;;;;;10.93;8.97;;;17.20;99.90;;;;;;5080704;28;20180;-64
2021/07/26 04:00:32;;;;;;;16.93;9.13;;;17.20;99.90;;;;;;5083112;28;20233;-64
2021/07/26 04:03:09;;;;;;;12.03;9.57;;;17.20;99.90;;;;;;5081124;28;20519;-64
2021/07/26 04:05:40;;;;;;;13.23;8.67;;;17.20;99.90;;;;;;5077749;28;20183;-64
2021/07/26 04:08:14;;;;;;;9.20;8.20;;;17.20;99.90;;;;;;5079038;28;20182;-64
2021/07/26 04:10:45;;;;;;;10.70;8.37;;;17.10;99.90;;;;;;5078222;28;20181;-64
2021/07/26 04:13:14;;;;;;;16.33;9.27;;;17.10;99.90;;;;;;5080620;28;20180;-64
2021/07/26 04:15:45;;;;;;;13.63;8.90;;;17.10;99.90;;;;;;5082566;28;20177;-64
2021/07/26 04:18:16;;;;;;;12.47;8.27;;;17.10;99.90;;;;;;5079838;28;20198;-64
2021/07/26 04:20:46;;;;;;;12.00;8.27;;;17.20;99.90;;;;;;5082925;28;20192;-64
2021/07/26 04:23:15;;;;;;;12.73;8.03;;;17.20;99.90;;;;;;5094911;28;20226;-64
2021/07/26 04:25:44;;;;;;;17.10;8.40;;;17.20;99.90;;;;;;5113953;28;20224;-64
2021/07/26 04:28:18;;;;;;;17.67;8.67;;;17.30;99.90;;;;;;5111918;28;20176;-64
2021/07/26 04:30:49;;;;;;;13.97;8.17;;;17.40;99.90;;;;;;5093145;28;20239;-64
2021/07/26 04:33:26;;;;;;;11.30;8.43;;;17.30;99.90;;;;;;5095725;28;20173;-64
2021/07/26 04:36:19;;;;;;;15.10;8.73;;;17.30;99.90;;;;;;5076665;28;20201;-64
2021/07/26 04:39:29;;;;;;;12.80;8.43;;;17.40;99.90;;;;;;5078947;28;20230;-64
2021/07/26 04:42:05;;;;;;;10.17;8.93;;;17.40;99.90;;;;;;5109468;28;20200;-64
2021/07/26 04:44:54;;;;;;;14.33;9.27;;;17.50;99.90;;;;;;5085755;28;20188;-64
2021/07/26 04:47:24;;;;;;;11.03;9.73;;;17.50;99.90;;;;;;5097712;28;20231;-64
2021/07/26 04:49:52;;;;;;;10.20;9.20;;;17.50;99.90;;;;;;5079137;28;20177;-64
2021/07/26 04:52:21;;;;;;;12.17;9.33;;;17.50;99.90;;;;;;5079400;28;20314;-64
2021/07/26 04:54:51;;;;;;;11.33;9.93;;;17.60;99.90;;;;;;5075566;28;20266;-64
2021/07/26 04:57:22;;;;;;;16.10;9.90;;;17.50;99.90;;;;;;5096449;28;20176;-64
2021/07/26 04:59:53;;;;;;;10.83;9.33;;;17.60;99.90;;;;;;5092063;28;20187;-64
2021/07/26 05:03:07;;;;;;;14.97;10.20;;;17.70;99.90;;;;;;5077845;28;20461;-64
2021/07/26 05:05:36;;;;;;;16.80;9.77;;;17.80;99.90;;;;;;5089957;28;20207;-64
2021/07/26 05:08:33;;;;;;;12.93;9.57;;;17.80;99.90;;;;;;5074903;28;20193;-64
2021/07/26 05:11:03;;;;;;;10.40;8.90;;;17.80;99.90;;;;;;5079913;28;20353;-64
2021/07/26 05:13:32;;;;;;;13.40;9.53;;;17.90;99.90;;;;;;5092866;28;20506;-64
2021/07/26 05:16:01;;;;;;;17.27;9.77;;;18.00;99.90;;;;;;5076478;28;20379;-64
2021/07/26 05:18:29;;;;;;;11.43;9.07;;;18.00;99.90;;;;;;5079031;28;20193;-64
2021/07/26 05:20:57;;;;;;;13.50;9.47;;;18.00;99.90;;;;;;5080564;28;20222;-64
2021/07/26 05:23:27;;;;;;;17.50;9.23;;;18.10;99.90;;;;;;5074546;28;20189;-64
2021/07/26 05:25:57;;;;;;;12.90;9.13;;;18.20;99.90;;;;;;5081091;28;20170;-64
2021/07/26 05:28:28;;;;;;;12.60;9.07;;;18.30;99.90;;;;;;5077210;28;20197;-64
2021/07/26 05:30:58;;;;;;;10.93;8.40;;;18.30;99.90;;;;;;5084765;28;20432;-64
2021/07/26 05:33:27;;;;;;;10.83;8.80;;;18.20;99.90;;;;;;5078794;28;20190;-64
2021/07/26 05:35:55;;;;;;;13.00;8.73;;;18.30;99.90;;;;;;5078774;28;20336;-64
2021/07/26 05:38:26;;;;;;;14.93;9.17;;;18.40;99.90;;;;;;5085703;28;20434;-64
2021/07/26 05:41:00;;;;;;;19.00;10.07;;;18.40;99.90;;;;;;5088729;28;20198;-64
2021/07/26 05:43:30;;;;;;;16.83;10.80;;;18.50;99.90;;;;;;5081216;28;20187;-64
2021/07/26 05:46:03;;;;;;;16.07;9.20;;;18.40;99.90;;;;;;5080170;28;20233;-64
2021/07/26 05:48:31;;;;;;;14.37;9.50;;;18.50;99.90;;;;;;5085335;28;20176;-64
2021/07/26 05:51:00;;;;;;;18.40;10.30;;;18.60;99.90;;;;;;5112320;28;20497;-64
2021/07/26 05:53:29;;;;;;;17.17;10.33;;;18.60;99.90;;;;;;5082426;28;20176;-64
2021/07/26 05:55:57;;;;;;;17.43;10.73;;;18.80;99.90;;;;;;5081112;28;20485;-64
2021/07/26 05:58:27;;;;;;;21.63;10.07;;;18.80;99.90;;;;;;5080758;28;20184;-64
2021/07/26 06:01:11;;;;;;;17.27;10.90;;;18.90;99.90;;;;;;5086588;28;20419;-64
2021/07/26 06:03:42;;;;;;;18.37;10.00;;;18.90;99.90;;;;;;5081066;28;20199;-64
2021/07/26 06:06:10;;;;;;;17.30;9.57;;;18.90;99.90;;;;;;5077627;28;20180;-64
2021/07/26 06:08:38;;;;;;;16.63;9.43;;;18.90;99.90;;;;;;5079287;28;20182;-64
2021/07/26 06:11:07;;;;;;;16.43;8.87;;;18.90;99.90;;;;;;5076367;28;20203;-64
2021/07/26 06:13:35;;;;;;;11.03;7.43;;;19.00;99.90;;;;;;5081677;28;20172;-64
2021/07/26 06:16:08;;;;;;;11.70;6.50;;;19.20;99.90;;;;;;5081561;28;20175;-64
2021/07/26 06:18:38;;;;;;;7.87;6.67;;;19.10;99.90;;;;;;5081938;28;20433;-64
2021/07/26 06:21:07;;;;;;;8.20;6.27;;;19.00;99.90;;;;;;5081298;28;20184;-64
2021/07/26 06:23:36;;;;;;;12.97;6.90;;;19.00;99.90;;;;;;5086443;28;20238;-64
2021/07/26 06:26:06;;;;;;;6.20;5.57;;;19.00;99.90;;;;;;5080578;28;20189;-64
2021/07/26 06:28:35;;;;;;;9.97;5.30;;;19.00;99.90;;;;;;5080646;28;20176;-64
2021/07/26 06:31:06;;;;;;;6.60;5.00;;;19.00;99.90;;;;;;5079416;28;20414;-64
2021/07/26 06:33:36;;;;;;;5.60;5.17;;;19.00;99.90;;;;;;5082314;28;20257;-64
2021/07/26 06:36:05;;;;;;;6.20;4.77;;;19.00;99.90;;;;;;5075323;28;20173;-64
2021/07/26 06:38:33;;;;;;;7.37;5.70;;;19.00;99.90;;;;;;5069782;28;20183;-64
2021/07/26 06:41:02;;;;;;;6.60;6.10;;;19.10;99.90;;;;;;5067147;28;20184;-64
2021/07/26 06:43:30;;;;;;;7.37;6.30;;;19.10;99.90;;;;;;5090111;28;20203;-64
2021/07/26 06:45:59;;;;;;;7.77;6.87;;;19.10;99.90;;;;;;5100816;28;20196;-64
2021/07/26 06:48:27;;;;;;;7.23;6.63;;;19.10;99.90;;;;;;5085352;28;20187;-64
2021/07/26 06:50:57;;;;;;;7.97;7.13;;;19.10;99.90;;;;;;5117988;28;20184;-64
2021/07/26 06:53:28;;;;;;;9.93;8.70;;;19.10;99.90;;;;;;5084455;28;20260;-64
2021/07/26 06:55:56;;;;;;;9.07;8.27;;;19.20;99.90;;;;;;5084273;28;20228;-64
2021/07/26 06:58:24;;;;;;;14.57;10.20;;;19.10;99.90;;;;;;5080848;28;20184;-64
2021/07/26 07:00:52;;;;;;;13.67;10.70;;;19.00;99.90;;;;;;5081412;28;20172;-64
2021/07/26 07:03:21;;;;;;;17.33;10.30;;;18.90;99.90;;;;;;5081451;28;20271;-64
2021/07/26 07:05:49;;;;;;;12.00;8.47;;;18.80;99.90;;;;;;5081787;28;20479;-64
2021/07/26 07:08:19;;;;;;;10.27;7.40;;;18.80;99.90;;;;;;5080701;28;20223;-64
2021/07/26 07:11:03;;;;;;;9.93;7.40;;;18.70;99.90;;;;;;5082276;28;20180;-64
2021/07/26 07:13:32;;;;;;;9.17;7.37;;;18.80;99.90;;;;;;5083154;28;20172;-64
2021/07/26 07:16:00;;;;;;;6.93;6.20;;;18.80;99.90;;;;;;5112933;28;20175;-64
2021/07/26 07:18:29;;;;;;;6.43;5.83;;;18.80;99.90;;;;;;5080825;28;20188;-64
2021/07/26 07:20:57;;;;;;;5.30;4.50;;;18.80;99.90;;;;;;5083130;28;20195;-64
2021/07/26 07:23:27;;;;;;;5.00;4.70;;;18.90;99.90;;;;;;5081498;28;20204;-64
2021/07/26 07:25:56;;;;;;;5.17;4.67;;;19.10;99.90;;;;;;5081999;28;20314;-64
2021/07/26 07:28:24;;;;;;;5.30;4.57;;;19.20;99.90;;;;;;5079449;28;20188;-65
2021/07/26 07:30:53;;;;;;;5.70;5.30;;;19.30;99.90;;;;;;5090719;28;20314;-64
2021/07/26 07:33:21;;;;;;;5.77;5.37;;;19.30;99.90;;;;;;5084637;28;20429;-64
2021/07/26 07:35:51;;;;;;;7.20;6.50;;;19.30;99.90;;;;;;5051499;28;20214;-64
2021/07/26 07:38:20;;;;;;;7.37;6.67;;;19.20;99.90;;;;;;5083453;28;20215;-64
2021/07/26 07:40:49;;;;;;;8.63;7.40;;;19.20;99.90;;;;;;5079962;28;20184;-64
2021/07/26 07:43:18;;;;;;;10.53;8.57;;;19.20;99.90;;;;;;5086988;28;20322;-64
2021/07/26 07:45:46;;;;;;;10.50;8.53;;;19.20;99.90;;;;;;5083616;28;20180;-64
2021/07/26 07:48:18;;;;;;;12.47;10.07;;;19.40;99.90;;;;;;5111520;28;20430;-65
2021/07/26 07:50:46;;;;;;;13.57;10.07;;;19.30;99.90;;;;;;5084968;28;20185;-65
2021/07/26 07:53:16;;;;;;;13.67;10.90;;;19.10;99.90;;;;;;5081044;28;20188;-65
2021/07/26 07:55:44;;;;;;;16.20;11.60;;;19.00;99.90;;;;;;5077646;28;20204;-66
2021/07/26 07:58:14;;;;;;;17.73;13.37;;;19.00;99.90;;;;;;5082562;28;20251;-66
2021/07/26 08:00:43;;;;;;;19.97;14.20;;;18.90;99.90;;;;;;5080986;28;20172;-65
2021/07/26 08:03:11;;;;;;;21.27;14.43;;;18.90;99.90;;;;;;5080203;28;20437;-65
2021/07/26 08:05:40;;;;;;;26.20;17.20;;;18.90;99.90;;;;;;5076041;28;20204;-66
2021/07/26 08:08:09;;;;;;;28.13;18.03;;;18.90;99.90;;;;;;5081196;28;20338;-65
2021/07/26 08:10:37;;;;;;;33.50;18.20;;;18.80;99.90;;;;;;5077638;28;20172;-65
2021/07/26 08:13:06;;;;;;;28.37;17.10;;;18.80;99.90;;;;;;5081467;28;20199;-65
2021/07/26 08:15:35;;;;;;;24.90;16.87;;;18.70;99.90;;;;;;5080085;28;20222;-65
2021/07/26 08:18:04;;;;;;;28.37;17.73;;;18.70;99.90;;;;;;5080389;28;20179;-66
2021/07/26 08:20:34;;;;;;;31.47;19.83;;;18.60;99.90;;;;;;5079724;28;20180;-66
2021/07/26 08:23:03;;;;;;;34.67;21.60;;;18.60;99.90;;;;;;5079482;28;20180;-65
2021/07/26 08:25:32;;;;;;;38.00;22.40;;;18.50;99.90;;;;;;5115147;28;20384;-65
2021/07/26 08:28:00;;;;;;;39.83;25.07;;;18.50;99.90;;;;;;5078554;28;20180;-65
2021/07/26 08:30:30;;;;;;;39.97;24.27;;;18.60;99.90;;;;;;5078809;28;20179;-66
2021/07/26 08:33:02;;;;;;;42.33;24.90;;;18.70;99.90;;;;;;5071817;28;20188;-65
2021/07/26 08:35:30;;;;;;;42.17;24.17;;;18.80;99.90;;;;;;5082024;28;20367;-66
2021/07/26 08:38:00;;;;;;;41.73;24.43;;;19.00;99.90;;;;;;5080791;28;20180;-65
2021/07/26 08:40:30;;;;;;;40.63;23.67;;;19.10;99.90;;;;;;5085526;28;20190;-65
2021/07/26 08:43:03;;;;;;;39.20;24.43;;;19.30;99.90;;;;;;5081130;28;20180;-66
2021/07/26 08:45:39;;;;;;;34.20;22.10;;;19.60;99.90;;;;;;5108809;28;20263;-66
2021/07/26 08:48:15;;;;;;;32.53;21.73;;;20.10;99.90;;;;;;5079864;28;20194;-66
2021/07/26 08:50:47;;;;;;;25.57;17.53;;;21.10;99.90;;;;;;5079294;28;20180;-66
2021/07/26 08:53:19;;;;;;;20.47;14.90;;;22.30;99.90;;;;;;5078090;28;20373;-66
2021/07/26 08:55:49;;;;;;;20.27;15.47;;;23.10;99.90;;;;;;5113151;28;20463;-65
2021/07/26 08:58:17;;;;;;;22.80;15.47;;;23.00;99.90;;;;;;5077295;28;20436;-66
2021/07/26 09:00:46;;;;;;;19.07;13.67;;;23.20;99.90;;;;;;5083136;28;20322;-66
2021/07/26 09:03:15;;;;;;;12.00;10.50;;;23.40;99.90;;;;;;5082115;28;20199;-66
2021/07/26 09:05:45;;;;;;;9.57;8.17;;;24.40;99.90;;;;;;5077810;28;20201;-65
2021/07/26 09:08:13;;;;;;;8.00;7.33;;;24.80;99.90;;;;;;5078435;28;21319;-66
2021/07/26 09:10:45;;;;;;;7.47;6.77;;;24.60;99.90;;;;;;5078253;28;20180;-66
2021/07/26 09:13:34;;;;;;;9.07;8.17;;;23.70;99.90;;;;;;5082416;28;20183;-65
2021/07/26 09:16:21;;;;;;;12.77;10.40;;;22.70;99.90;;;;;;5111568;28;20197;-65
2021/07/26 09:19:03;;;;;;;11.77;10.50;;;21.80;99.90;;;;;;5079838;28;20196;-65
2021/07/26 09:21:52;;;;;;;14.27;11.03;;;21.30;99.90;;;;;;5078369;28;20425;-65
2021/07/26 09:24:25;;;;;;;17.17;12.40;;;21.10;99.90;;;;;;5079101;28;20230;-65
2021/07/26 09:26:54;;;;;;;13.97;11.97;;;21.30;99.90;;;;;;5080068;28;20175;-65
2021/07/26 09:29:28;;;;;;;15.47;11.83;;;21.50;99.90;;;;;;5080586;28;20199;-65
2021/07/26 09:31:58;;;;;;;10.80;9.70;;;21.60;99.90;;;;;;5079346;28;20196;-65
2021/07/26 09:34:28;;;;;;;12.03;10.73;;;21.50;99.90;;;;;;5073704;28;20184;-65
2021/07/26 09:36:57;;;;;;;17.03;14.07;;;21.40;99.90;;;;;;5078179;28;20553;-65
2021/07/26 09:39:27;;;;;;;20.20;15.80;;;21.20;99.90;;;;;;5078444;28;20176;-65
2021/07/26 09:41:58;;;;;;;22.83;14.67;;;21.00;99.90;;;;;;5087038;28;20211;-65
2021/07/26 09:44:29;;;;;;;24.50;16.83;;;20.80;99.90;;;;;;5080029;28;20195;-65
2021/07/26 09:47:19;;;;;;;30.50;17.23;;;20.70;99.90;;;;;;5077741;28;20184;-65
2021/07/26 09:49:49;;;;;;;27.90;15.33;;;20.50;99.90;;;;;;5077023;28;20203;-66
2021/07/26 09:52:21;;;;;;;25.13;16.77;;;20.20;99.90;;;;;;5078794;28;20188;-66
2021/07/26 09:54:52;;;;;;;27.97;17.37;;;20.20;99.90;;;;;;5078641;28;20210;-66
2021/07/26 09:57:22;;;;;;;29.30;17.53;;;20.20;99.90;;;;;;5079973;28;20495;-65
2021/07/26 09:59:52;;;;;;;26.07;16.87;;;20.10;99.90;;;;;;5081436;28;20188;-66
2021/07/26 10:02:23;;;;;;;28.67;16.63;;;20.00;99.90;;;;;;5075806;28;20180;-66
2021/07/26 10:04:57;;;;;;;34.13;18.27;;;20.00;99.90;;;;;;5107668;28;20320;-65
2021/07/26 10:07:27;;;;;;;35.63;18.70;;;19.90;99.90;;;;;;5081274;28;20192;-66
2021/07/26 10:09:58;;;;;;;33.93;18.30;;;19.90;99.90;;;;;;5106864;28;20180;-67
2021/07/26 10:12:27;;;;;;;35.40;18.90;;;19.80;99.90;;;;;;5088428;28;20176;-66
2021/07/26 10:14:56;;;;;;;29.73;18.50;;;19.80;99.90;;;;;;5083720;28;20172;-66
2021/07/26 10:17:25;;;;;;;36.20;19.67;;;19.70;99.90;;;;;;5083848;28;20472;-66
2021/07/26 10:19:53;;;;;;;32.10;19.07;;;19.70;99.90;;;;;;5078536;28;20184;-66
2021/07/26 10:22:28;;;;;;;35.57;18.97;;;19.90;99.90;;;;;;5083952;28;20179;-65
2021/07/26 10:25:01;;;;;;;31.07;17.97;;;20.10;99.90;;;;;;5079537;28;20418;-64
2021/07/26 10:27:32;;;;;;;28.67;18.53;;;20.60;99.90;;;;;;5082085;28;20490;-65
2021/07/26 10:30:01;;;;;;;23.00;16.00;;;21.10;99.90;;;;;;5085620;28;20191;-66
2021/07/26 10:32:34;;;;;;;24.93;16.00;;;21.80;99.90;;;;;;5081202;28;20428;-66
2021/07/26 10:35:05;;;;;;;24.33;15.17;;;22.00;99.90;;;;;;5080840;28;20200;-66
2021/07/26 10:37:50;;;;;;;19.33;14.77;;;21.90;99.90;;;;;;5091285;28;20218;-65
2021/07/26 10:40:19;;;;;;;23.33;14.73;;;21.80;99.90;;;;;;5101715;28;20230;-66
2021/07/26 10:42:48;;;;;;;18.03;13.33;;;21.70;99.90;;;;;;5081557;28;20194;-65
2021/07/26 10:45:59;;;;;;;17.00;12.27;;;21.50;99.90;;;;;;5078406;28;20230;-65
2021/07/26 10:48:36;;;;;;;18.93;12.80;;;21.30;99.90;;;;;;5086253;28;20185;-65
2021/07/26 10:51:39;;;;;;;18.23;13.07;;;22.10;99.90;;;;;;5112853;28;20341;-65
2021/07/26 10:54:09;;;;;;;20.00;13.17;;;22.60;99.90;;;;;;5081548;28;20229;-65
2021/07/26 10:57:06;;;;;;;19.63;13.17;;;22.70;99.90;;;;;;5090745;28;20246;-66
2021/07/26 11:00:19;;;;;;;19.53;12.20;;;22.10;99.90;;;;;;5086517;28;20188;-65
2021/07/26 11:02:49;;;;;;;20.50;12.83;;;21.70;99.90;;;;;;5081306;28;20251;-64
2021/07/26 11:05:35;;;;;;;18.60;12.43;;;21.50;99.90;;;;;;5080943;28;20266;-65
2021/07/26 11:08:26;;;;;;;19.63;12.47;;;22.00;99.90;;;;;;5079030;28;20255;-65
2021/07/26 11:10:59;;;;;;;24.27;11.67;;;22.50;99.90;;;;;;5077888;28;20186;-66
2021/07/26 11:14:06;;;;;;;18.63;11.80;;;22.60;99.90;;;;;;5083044;28;20250;-65
2021/07/26 11:17:04;;;;;;;14.60;10.57;;;22.70;99.90;;;;;;5078551;28;20411;-66
2021/07/26 11:19:37;;;;;;;17.60;9.80;;;23.00;99.90;;;;;;5085680;28;20791;-66
2021/07/26 11:22:07;;;;;;;14.03;10.03;;;23.20;99.90;;;;;;5076433;28;20331;-65
2021/07/26 11:24:48;;;;;;;10.77;8.53;;;23.10;99.90;;;;;;5084632;28;20186;-65
2021/07/26 11:27:42;;;;;;;13.20;9.17;;;22.80;99.90;;;;;;5083090;28;20220;-66
2021/07/26 11:30:15;;;;;;;14.00;9.63;;;22.50;99.90;;;;;;5094135;28;20186;-65
2021/07/26 11:32:53;;;;;;;12.13;8.43;;;22.30;99.90;;;;;;5081126;28;20204;-65
2021/07/26 11:35:31;;;;;;;9.63;7.80;;;22.20;99.90;;;;;;5082355;28;20454;-65
2021/07/26 11:38:05;;;;;;;7.73;6.90;;;22.00;99.90;;;;;;5082984;28;20180;-64
2021/07/26 11:40:34;;;;;;;6.57;5.50;;;21.80;99.90;;;;;;5080445;28;20187;-65
2021/07/26 11:43:04;;;;;;;5.43;4.97;;;21.70;99.90;;;;;;5077639;28;20184;-65
2021/07/26 11:45:33;;;;;;;7.80;7.00;;;21.60;99.90;;;;;;5089191;28;20372;-65
2021/07/26 11:48:06;;;;;;;12.03;8.23;;;21.50;99.90;;;;;;5082482;28;20202;-66
2021/07/26 11:50:37;;;;;;;8.20;7.40;;;21.20;99.90;;;;;;5110214;28;20256;-66
2021/07/26 11:53:07;;;;;;;9.53;6.67;;;21.00;99.90;;;;;;5079165;28;20181;-65
2021/07/26 11:55:37;;;;;;;6.57;6.00;;;20.90;99.90;;;;;;5082207;28;20567;-65
2021/07/26 11:58:10;;;;;;;15.67;6.10;;;21.00;99.90;;;;;;5080963;28;20184;-65
2021/07/26 12:00:41;;;;;;;10.63;7.57;;;21.20;99.90;;;;;;5080210;28;20237;-65
2021/07/26 12:03:10;;;;;;;7.70;7.00;;;21.30;99.90;;;;;;5097144;28;20226;-65
2021/07/26 12:05:38;;;;;;;8.07;7.37;;;21.30;99.90;;;;;;5080081;28;20255;-65
2021/07/26 12:08:13;;;;;;;7.43;6.80;;;21.10;99.90;;;;;;5081465;28;20175;-65
2021/07/26 12:10:44;;;;;;;7.27;6.53;;;21.00;99.90;;;;;;5079165;28;20254;-66
2021/07/26 12:13:16;;;;;;;10.07;7.30;;;20.70;99.90;;;;;;5080132;28;20483;-65
2021/07/26 12:15:45;;;;;;;5.03;4.33;;;20.40;99.90;;;;;;5083812;28;20252;-65
2021/07/26 12:18:37;;;;;;;4.23;3.93;;;20.00;99.90;;;;;;5078182;28;20184;-65
2021/07/26 12:21:07;;;;;;;4.13;3.80;;;19.90;99.90;;;;;;5096051;28;20187;-65
2021/07/26 12:23:37;;;;;;;4.23;3.87;;;19.80;99.90;;;;;;5080945;28;20184;-65
2021/07/26 12:26:13;;;;;;;5.50;4.43;;;19.80;99.90;;;;;;5079997;28;20223;-65
2021/07/26 12:28:44;;;;;;;5.47;4.43;;;19.90;99.90;;;;;;5081066;28;20365;-66
2021/07/26 12:31:26;;;;;;;4.20;4.00;;;20.00;99.90;;;;;;5078398;28;20326;-65
2021/07/26 12:34:10;;;;;;;4.10;3.70;;;20.20;99.90;;;;;;5108584;28;20185;-65
2021/07/26 12:36:39;;;;;;;3.87;3.57;;;20.40;99.90;;;;;;5080874;28;20225;-65
2021/07/26 12:39:08;;;;;;;4.57;4.03;;;20.60;99.90;;;;;;5086467;28;20478;-65
2021/07/26 12:41:38;;;;;;;3.63;3.37;;;20.80;99.90;;;;;;5112847;28;20184;-66
2021/07/26 12:44:12;;;;;;;4.00;3.17;;;20.90;99.90;;;;;;5078595;28;20260;-65
2021/07/26 12:46:46;;;;;;;3.03;2.93;;;21.10;99.90;;;;;;5080598;28;20230;-66
2021/07/26 12:49:15;;;;;;;3.60;3.50;;;21.20;99.90;;;;;;5064567;28;20437;-65
2021/07/26 12:51:44;;;;;;;4.73;4.43;;;21.20;99.90;;;;;;5081824;28;20183;-65
2021/07/26 12:54:13;;;;;;;5.63;5.13;;;21.40;99.90;;;;;;5077520;28;20187;-65
2021/07/26 12:56:41;;;;;;;5.00;4.70;;;21.50;99.90;;;;;;5079105;28;20225;-66
2021/07/26 12:59:11;;;;;;;5.40;5.00;;;21.50;99.90;;;;;;5079256;28;20313;-66